createdAt,value
2022-08-22T00:00:19.866Z,52.68
2022-08-22T00:03:04.029Z,40.04
2022-08-22T00:03:10.897Z,51.64
2022-08-22T00:06:04.416Z,52.67
2022-08-22T00:08:41.116Z,53.12
2022-08-22T00:11:15.988Z,53.01
2022-08-22T00:13:48.925Z,53.57
2022-08-22T00:16:37.518Z,53.14
2022-08-22T00:19:14.768Z,53.30
2022-08-22T00:21:48.703Z,52.97
2022-08-22T00:24:28.634Z,53.45
2022-08-22T00:27:02.060Z,53.62
2022-08-22T00:29:39.093Z,54.13
2022-08-22T00:32:20.725Z,54.36
2022-08-22T00:34:55.035Z,54.28
2022-08-22T00:37:28.904Z,54.41
2022-08-22T00:40:03.202Z,54.53
2022-08-22T00:42:52.467Z,54.28
2022-08-22T00:45:55.905Z,54.65
2022-08-22T00:48:59.945Z,54.53
2022-08-22T00:52:00.316Z,55.11
2022-08-22T00:55:02.828Z,55.39
2022-08-22T00:57:43.664Z,55.00
2022-08-22T01:00:17.476Z,54.57
2022-08-22T01:03:07.086Z,54.84
2022-08-22T01:05:53.912Z,54.84
2022-08-22T01:08:36.242Z,55.39
2022-08-22T01:11:28.996Z,55.33
2022-08-22T01:14:15.630Z,55.35
2022-08-22T01:17:17.812Z,55.23
2022-08-22T01:20:16.451Z,55.00
2022-08-22T01:23:15.608Z,55.29
2022-08-22T01:26:34.037Z,55.81
2022-08-22T01:29:37.216Z,56.29
2022-08-22T01:32:47.727Z,56.19
2022-08-22T01:35:43.583Z,55.85
2022-08-22T01:38:45.283Z,56.08
2022-08-22T01:41:43.790Z,55.67
2022-08-22T01:44:32.190Z,56.04
2022-08-22T01:47:04.661Z,55.35
2022-08-22T01:49:42.537Z,55.47
2022-08-22T01:52:19.490Z,55.35
2022-08-22T01:54:54.084Z,55.55
2022-08-22T01:57:23.208Z,55.88
2022-08-22T01:59:53.719Z,55.82
2022-08-22T02:02:37.444Z,55.91
2022-08-22T02:05:12.324Z,55.94
2022-08-22T02:07:49.839Z,56.15
2022-08-22T02:10:24.456Z,56.06
2022-08-22T02:13:03.208Z,56.78
2022-08-22T02:15:45.310Z,56.74
2022-08-22T02:18:21.477Z,56.58
2022-08-22T02:21:00.601Z,56.59
2022-08-22T02:23:37.775Z,56.29
2022-08-22T02:26:14.972Z,56.50
2022-08-22T02:28:57.257Z,56.42
2022-08-22T02:31:37.301Z,56.57
2022-08-22T02:34:21.453Z,56.63
2022-08-22T02:36:54.028Z,56.90
2022-08-22T02:39:34.841Z,57.54
2022-08-22T02:42:14.856Z,57.38
2022-08-22T02:44:49.343Z,56.90
2022-08-22T02:47:31.278Z,57.14
2022-08-22T02:50:06.752Z,57.72
2022-08-22T02:53:02.031Z,57.96
2022-08-22T02:55:41.851Z,57.81
2022-08-22T02:58:18.650Z,57.89
2022-08-22T03:00:52.252Z,58.09
2022-08-22T03:03:25.888Z,57.86
2022-08-22T03:06:01.844Z,57.49
2022-08-22T03:08:32.174Z,57.51
2022-08-22T03:11:15.086Z,57.39
2022-08-22T03:13:54.908Z,57.80
2022-08-22T03:16:29.851Z,57.80
2022-08-22T03:19:14.939Z,58.28
2022-08-22T03:21:56.702Z,58.60
2022-08-22T03:24:30.806Z,59.04
2022-08-22T03:27:15.181Z,59.17
2022-08-22T03:30:05.950Z,59.66
2022-08-22T03:32:53.194Z,59.24
2022-08-22T03:35:30.888Z,59.75
2022-08-22T03:38:15.139Z,60.02
2022-08-22T03:40:59.497Z,60.36
2022-08-22T03:43:51.631Z,60.31
2022-08-22T03:46:55.137Z,60.93
2022-08-22T03:49:45.398Z,61.06
2022-08-22T03:52:28.619Z,60.47
2022-08-22T03:55:21.679Z,60.61
2022-08-22T03:58:07.691Z,60.68
2022-08-22T04:01:19.306Z,60.75
2022-08-22T04:04:15.298Z,61.21
2022-08-22T04:07:15.797Z,61.36
2022-08-22T04:10:26.926Z,62.11
2022-08-22T04:13:24.656Z,62.62
2022-08-22T04:16:20.726Z,62.85
2022-08-22T04:19:35.622Z,62.82
2022-08-22T04:22:22.078Z,62.68
2022-08-22T04:24:56.170Z,63.25
2022-08-22T04:27:29.212Z,62.98
2022-08-22T04:30:03.441Z,62.61
2022-08-22T04:32:38.054Z,62.29
2022-08-22T04:35:10.016Z,62.81
2022-08-22T04:37:46.246Z,62.63
2022-08-22T04:40:23.183Z,62.68
2022-08-22T04:42:55.163Z,62.83
2022-08-22T04:45:36.362Z,62.51
2022-08-22T04:48:13.043Z,62.94
2022-08-22T04:50:44.432Z,62.80
2022-08-22T04:53:27.460Z,62.36
2022-08-22T04:56:07.287Z,62.27
2022-08-22T04:58:44.413Z,61.54
2022-08-22T05:01:17.578Z,61.26
2022-08-22T05:03:53.674Z,61.23
2022-08-22T05:06:26.359Z,60.95
2022-08-22T05:08:55.793Z,60.35
2022-08-22T05:11:24.986Z,58.76
2022-08-22T05:13:57.859Z,58.19
2022-08-22T05:16:29.997Z,58.28
2022-08-22T05:19:03.929Z,59.47
2022-08-22T05:21:43.441Z,59.24
2022-08-22T05:24:15.960Z,59.39
2022-08-22T05:26:47.805Z,59.00
2022-08-22T05:29:21.002Z,56.80
2022-08-22T05:31:52.892Z,55.52
2022-08-22T05:34:24.995Z,53.82
2022-08-22T05:36:58.161Z,53.57
2022-08-22T05:39:28.250Z,54.07
2022-08-22T05:41:59.017Z,54.11
2022-08-22T05:44:28.777Z,54.46
2022-08-22T05:47:02.646Z,54.91
2022-08-22T05:49:39.045Z,54.64
2022-08-22T05:52:22.667Z,50.90
2022-08-22T05:54:56.990Z,48.57
2022-08-22T05:57:31.150Z,46.69
2022-08-22T06:00:04.809Z,46.46
2022-08-22T06:02:48.511Z,45.70
2022-08-22T06:05:24.259Z,44.33
2022-08-22T06:07:56.303Z,44.16
2022-08-22T06:10:29.605Z,45.77
2022-08-22T06:13:03.583Z,42.64
2022-08-22T06:15:38.642Z,42.24
2022-08-22T06:18:13.702Z,42.11
2022-08-22T06:20:48.557Z,39.78
2022-08-22T06:23:23.333Z,38.45
2022-08-22T06:25:54.784Z,37.84
2022-08-22T06:28:26.949Z,36.61
2022-08-22T06:30:56.470Z,35.62
2022-08-22T06:33:28.963Z,35.72
2022-08-22T06:36:20.671Z,35.72
2022-08-22T06:39:05.623Z,35.69
2022-08-22T06:41:38.559Z,38.23
2022-08-22T06:44:08.866Z,40.76
2022-08-22T06:46:38.888Z,39.40
2022-08-22T06:49:09.195Z,39.68
2022-08-22T06:51:42.344Z,40.84
2022-08-22T06:54:19.049Z,40.44
2022-08-22T06:56:49.512Z,41.92
2022-08-22T06:59:19.796Z,42.10
2022-08-22T07:01:52.468Z,44.14
2022-08-22T07:04:25.926Z,45.35
2022-08-22T07:06:57.295Z,43.39
2022-08-22T07:09:28.109Z,44.92
2022-08-22T07:11:58.922Z,45.07
2022-08-22T07:14:30.501Z,44.83
2022-08-22T07:17:00.978Z,44.43
2022-08-22T07:19:32.236Z,45.30
2022-08-22T07:22:12.587Z,43.91
2022-08-22T07:24:46.862Z,45.01
2022-08-22T07:27:26.652Z,42.47
2022-08-22T07:30:02.871Z,40.56
2022-08-22T07:32:42.116Z,40.16
2022-08-22T07:35:12.851Z,40.66
2022-08-22T07:37:58.028Z,39.92
2022-08-22T07:40:33.146Z,39.72
2022-08-22T07:43:09.429Z,39.77
2022-08-22T07:45:41.565Z,40.67
2022-08-22T07:48:25.470Z,39.37
2022-08-22T07:51:03.749Z,39.67
2022-08-22T07:53:40.258Z,39.13
2022-08-22T07:56:14.871Z,38.20
2022-08-22T07:58:45.543Z,39.15
2022-08-22T08:01:19.090Z,42.42
2022-08-22T08:03:54.497Z,45.23
2022-08-22T08:06:24.848Z,46.88
2022-08-22T08:08:55.773Z,44.98
2022-08-22T08:11:26.995Z,44.32
2022-08-22T08:14:00.017Z,45.08
2022-08-22T08:16:34.407Z,45.17
2022-08-22T08:19:03.636Z,42.29
2022-08-22T08:21:34.650Z,42.74
2022-08-22T08:24:08.460Z,40.96
2022-08-22T08:27:00.860Z,44.98
2022-08-22T08:29:28.824Z,47.60
2022-08-22T08:31:57.505Z,45.79
2022-08-22T08:34:28.114Z,44.43
2022-08-22T08:37:02.188Z,41.93
2022-08-22T08:39:36.399Z,40.36
2022-08-22T08:42:33.240Z,40.89
2022-08-22T08:45:18.002Z,42.84
2022-08-22T08:48:08.656Z,44.19
2022-08-22T08:50:53.091Z,42.38
2022-08-22T08:53:49.533Z,42.52
2022-08-22T08:56:26.726Z,40.82
2022-08-22T08:59:03.465Z,42.53
2022-08-22T09:02:13.949Z,46.02
2022-08-22T09:05:25.730Z,45.72
2022-08-22T09:08:42.213Z,45.99
2022-08-22T09:11:33.826Z,45.08
2022-08-22T09:14:14.144Z,45.42
2022-08-22T09:17:01.577Z,45.49
2022-08-22T09:20:00.054Z,45.45
2022-08-22T09:22:50.846Z,45.38
2022-08-22T09:25:24.782Z,44.43
2022-08-22T09:28:01.489Z,43.10
2022-08-22T09:30:58.814Z,43.35
2022-08-22T09:33:34.407Z,44.72
2022-08-22T09:36:07.315Z,44.18
2022-08-22T09:38:48.336Z,42.97
2022-08-22T09:41:30.330Z,43.09
2022-08-22T09:44:13.166Z,42.66
2022-08-22T09:46:53.377Z,43.12
2022-08-22T09:49:36.944Z,42.52
2022-08-22T09:52:15.371Z,42.75
2022-08-22T09:54:48.986Z,41.46
2022-08-22T09:57:26.674Z,41.82
2022-08-22T10:00:26.335Z,42.28
2022-08-22T10:03:05.455Z,41.61
2022-08-22T10:05:45.057Z,42.39
2022-08-22T10:08:29.566Z,41.51
2022-08-22T10:11:22.906Z,41.79
2022-08-22T10:13:57.789Z,42.73
2022-08-22T10:16:44.508Z,41.58
2022-08-22T10:19:18.906Z,41.21
2022-08-22T10:22:14.753Z,40.58
2022-08-22T10:24:49.152Z,40.31
2022-08-22T10:27:25.785Z,38.36
2022-08-22T10:30:08.022Z,37.37
2022-08-22T10:32:40.939Z,36.36
2022-08-22T10:35:19.615Z,35.67
2022-08-22T10:37:55.245Z,36.22
2022-08-22T10:40:29.818Z,36.81
2022-08-22T10:43:02.696Z,37.62
2022-08-22T10:45:36.113Z,37.35
2022-08-22T10:48:46.849Z,35.95
2022-08-22T10:51:36.689Z,35.73
2022-08-22T10:54:28.682Z,36.52
2022-08-22T10:57:08.204Z,36.06
2022-08-22T10:59:44.539Z,36.53
2022-08-22T11:02:31.757Z,36.16
2022-08-22T11:05:42.834Z,34.14
2022-08-22T11:08:35.031Z,32.77
2022-08-22T11:11:17.617Z,33.08
2022-08-22T11:14:02.299Z,32.67
2022-08-22T11:16:45.534Z,32.87
2022-08-22T11:19:26.328Z,33.24
2022-08-22T11:22:04.739Z,33.06
2022-08-22T11:25:15.005Z,32.63
2022-08-22T11:28:31.614Z,32.95
2022-08-22T11:31:07.540Z,32.84
2022-08-22T11:33:46.593Z,32.03
2022-08-22T11:36:36.690Z,32.45
2022-08-22T11:39:18.536Z,32.31
2022-08-22T11:41:59.406Z,31.44
2022-08-22T11:44:32.280Z,30.81
2022-08-22T11:47:08.354Z,29.84
2022-08-22T11:49:49.158Z,31.28
2022-08-22T11:52:30.092Z,31.34
2022-08-22T11:55:21.551Z,31.56
2022-08-22T11:57:52.108Z,32.02
2022-08-22T12:00:27.849Z,31.18
2022-08-22T12:03:23.241Z,30.59
2022-08-22T12:05:54.036Z,30.82
2022-08-22T12:08:46.190Z,29.89
2022-08-22T12:11:23.360Z,29.50
2022-08-22T12:14:04.164Z,29.23
2022-08-22T12:16:45.908Z,29.87
2022-08-22T12:19:23.112Z,31.46
2022-08-22T12:22:36.482Z,31.24
2022-08-22T12:25:20.018Z,30.17
2022-08-22T12:28:10.580Z,30.53
2022-08-22T12:30:53.562Z,31.25
2022-08-22T12:33:39.920Z,31.23
2022-08-22T12:36:25.006Z,30.68
2022-08-22T12:39:13.357Z,29.67
2022-08-22T12:42:09.485Z,29.48
2022-08-22T12:44:52.247Z,29.14
2022-08-22T12:47:32.289Z,29.11
2022-08-22T12:50:20.480Z,28.01
2022-08-22T12:53:07.519Z,28.52
2022-08-22T12:55:51.439Z,27.23
2022-08-22T12:58:34.069Z,27.60
2022-08-22T13:01:07.881Z,27.21
2022-08-22T13:03:42.549Z,29.85
2022-08-22T13:07:03.811Z,29.28
2022-08-22T13:09:37.634Z,29.92
2022-08-22T13:12:20.882Z,29.38
2022-08-22T13:14:53.392Z,29.03
2022-08-22T13:17:25.726Z,28.95
2022-08-22T13:20:04.687Z,28.01
2022-08-22T13:22:36.518Z,28.04
2022-08-22T13:25:09.272Z,28.99
2022-08-22T13:28:02.214Z,28.80
2022-08-22T13:30:37.354Z,27.85
2022-08-22T13:33:11.433Z,28.27
2022-08-22T13:35:44.548Z,28.09
2022-08-22T13:38:28.677Z,28.10
2022-08-22T13:40:59.096Z,27.04
2022-08-22T13:43:32.143Z,27.48
2022-08-22T13:46:03.156Z,28.03
2022-08-22T13:48:50.247Z,26.78
2022-08-22T13:51:27.307Z,27.66
2022-08-22T13:54:02.594Z,27.68
2022-08-22T13:56:55.590Z,27.12
2022-08-22T13:59:50.074Z,28.02
2022-08-22T14:02:34.889Z,27.63
2022-08-22T14:05:09.891Z,28.06
2022-08-22T14:07:42.886Z,26.99
2022-08-22T14:10:19.958Z,26.59
2022-08-22T14:13:22.342Z,26.49
2022-08-22T14:16:00.793Z,27.17
2022-08-22T14:18:35.823Z,28.40
2022-08-22T14:21:40.681Z,27.65
2022-08-22T14:24:16.778Z,28.63
2022-08-22T14:26:58.156Z,28.72
2022-08-22T14:29:28.942Z,28.87
2022-08-22T14:32:04.529Z,28.40
2022-08-22T14:34:35.383Z,28.60
2022-08-22T14:37:13.000Z,27.12
2022-08-22T14:39:44.564Z,27.47
2022-08-22T14:42:18.670Z,27.29
2022-08-22T14:44:59.021Z,27.04
2022-08-22T14:47:54.999Z,28.09
2022-08-22T14:50:42.271Z,28.19
2022-08-22T14:53:14.062Z,27.91
2022-08-22T14:55:43.188Z,27.63
2022-08-22T14:58:17.271Z,27.70
2022-08-22T15:00:47.667Z,26.80
2022-08-22T15:03:25.846Z,27.48
2022-08-22T15:05:58.392Z,28.27
2022-08-22T15:08:32.339Z,27.84
2022-08-22T15:11:15.148Z,28.77
2022-08-22T15:13:52.400Z,27.46
2022-08-22T15:16:25.871Z,27.81
2022-08-22T15:18:54.619Z,27.69
2022-08-22T15:21:25.719Z,27.70
2022-08-22T15:23:59.461Z,28.04
2022-08-22T15:26:30.955Z,27.84
2022-08-22T15:29:05.661Z,27.72
2022-08-22T15:31:34.672Z,28.12
2022-08-22T15:34:12.794Z,28.24
2022-08-22T15:37:08.347Z,27.86
2022-08-22T15:40:03.034Z,27.63
2022-08-22T15:42:40.333Z,28.75
2022-08-22T15:45:19.421Z,28.33
2022-08-22T15:47:52.087Z,28.46
2022-08-22T15:50:31.915Z,28.79
2022-08-22T15:53:12.559Z,28.91
2022-08-22T15:56:29.287Z,28.75
2022-08-22T15:59:25.647Z,28.65
2022-08-22T16:01:57.781Z,28.29
2022-08-22T16:04:36.532Z,28.69
2022-08-22T16:07:36.448Z,28.42
2022-08-22T16:10:09.708Z,28.53
2022-08-22T16:12:43.035Z,29.01
2022-08-22T16:15:43.886Z,28.74
2022-08-22T16:18:50.002Z,28.70
2022-08-22T16:21:39.688Z,28.80
2022-08-22T16:24:31.399Z,29.20
2022-08-22T16:27:18.738Z,29.00
2022-08-22T16:29:47.175Z,29.37
2022-08-22T16:32:26.369Z,29.26
2022-08-22T16:34:54.124Z,29.09
2022-08-22T16:37:49.871Z,30.01
2022-08-22T16:40:24.242Z,29.72
2022-08-22T16:43:14.362Z,29.75
2022-08-22T16:45:45.571Z,29.70
2022-08-22T16:48:36.056Z,29.68
2022-08-22T16:51:15.846Z,31.18
2022-08-22T16:54:10.381Z,30.69
2022-08-22T16:57:09.208Z,30.54
2022-08-22T16:59:46.698Z,31.12
2022-08-22T17:02:36.420Z,31.76
2022-08-22T17:05:17.172Z,31.82
2022-08-22T17:07:59.042Z,31.83
2022-08-22T17:10:41.774Z,30.87
2022-08-22T17:13:26.433Z,30.87
2022-08-22T17:16:09.825Z,30.72
2022-08-22T17:18:50.535Z,29.92
2022-08-22T17:21:26.114Z,31.23
2022-08-22T17:24:01.544Z,30.78
2022-08-22T17:26:44.794Z,31.02
2022-08-22T17:29:22.082Z,30.45
2022-08-22T17:31:55.444Z,31.20
2022-08-22T17:34:34.324Z,31.62
2022-08-22T17:37:09.962Z,31.02
2022-08-22T17:40:04.718Z,30.78
2022-08-22T17:42:47.657Z,31.15
2022-08-22T17:45:27.586Z,31.12
2022-08-22T17:48:03.801Z,31.82
2022-08-22T17:50:39.616Z,31.50
2022-08-22T17:53:11.966Z,31.86
2022-08-22T17:55:59.587Z,32.62
2022-08-22T17:58:43.700Z,32.23
2022-08-22T18:01:15.913Z,33.01
2022-08-22T18:03:51.426Z,33.11
2022-08-22T18:06:23.106Z,32.82
2022-08-22T18:11:49.496Z,32.83
2022-08-22T18:14:29.508Z,33.11
2022-08-22T18:17:00.710Z,32.98
2022-08-22T18:19:46.777Z,32.89
2022-08-22T18:22:29.982Z,33.88
2022-08-22T18:25:04.442Z,33.86
2022-08-22T18:27:39.131Z,33.86
2022-08-22T18:30:20.485Z,33.22
2022-08-22T18:32:59.550Z,34.24
2022-08-22T18:35:32.858Z,33.81
2022-08-22T18:38:19.588Z,34.76
2022-08-22T18:40:53.116Z,33.82
2022-08-22T18:43:26.881Z,34.20
2022-08-22T18:46:03.355Z,35.27
2022-08-22T18:48:54.235Z,35.56
2022-08-22T18:51:31.021Z,35.09
2022-08-22T18:54:20.695Z,35.41
2022-08-22T18:56:54.047Z,35.39
2022-08-22T18:59:33.743Z,35.83
2022-08-22T19:02:16.099Z,34.71
2022-08-22T19:05:21.356Z,35.95
2022-08-22T19:08:19.156Z,35.77
2022-08-22T19:10:57.536Z,36.05
2022-08-22T19:13:46.104Z,35.75
2022-08-22T19:16:42.654Z,36.57
2022-08-22T19:19:17.544Z,36.45
2022-08-22T19:22:20.972Z,36.93
2022-08-22T19:25:20.433Z,36.92
2022-08-22T19:28:26.363Z,37.13
2022-08-22T19:31:23.389Z,37.49
2022-08-22T19:34:30.608Z,37.67
2022-08-22T19:37:32.340Z,37.91
2022-08-22T19:40:05.274Z,38.10
2022-08-22T19:42:39.918Z,38.21
2022-08-22T19:45:21.796Z,37.85
2022-08-22T19:48:01.366Z,37.79
2022-08-22T19:50:35.809Z,38.43
2022-08-22T19:53:32.815Z,38.70
2022-08-22T19:56:09.565Z,38.76
2022-08-22T19:59:03.226Z,38.85
2022-08-22T20:01:44.451Z,38.68
2022-08-22T20:04:37.588Z,38.72
2022-08-22T20:07:16.521Z,38.71
2022-08-22T20:09:54.492Z,38.72
2022-08-22T20:12:33.077Z,38.86
2022-08-22T20:15:13.010Z,38.55
2022-08-22T20:17:43.798Z,38.55
2022-08-22T20:20:35.808Z,38.75
2022-08-22T20:23:10.129Z,38.84
2022-08-22T20:25:44.805Z,38.35
2022-08-22T20:28:30.875Z,38.81
2022-08-22T20:31:00.953Z,38.96
2022-08-22T20:33:33.665Z,39.40
2022-08-22T20:36:05.695Z,39.20
2022-08-22T20:38:38.439Z,39.22
2022-08-22T20:41:20.809Z,38.83
2022-08-22T20:43:53.979Z,38.61
2022-08-22T20:46:43.770Z,39.46
2022-08-22T20:49:18.384Z,39.04
2022-08-22T20:51:54.858Z,39.03
2022-08-22T20:54:25.078Z,39.03
2022-08-22T20:56:55.524Z,39.32
2022-08-22T20:59:29.581Z,39.04
2022-08-22T21:02:05.817Z,39.41
2022-08-22T21:04:43.023Z,39.76
2022-08-22T21:07:12.259Z,40.02
2022-08-22T21:09:57.318Z,40.19
2022-08-22T21:12:26.282Z,40.42
2022-08-22T21:14:53.887Z,40.48
2022-08-22T21:17:25.953Z,40.11
2022-08-22T21:19:53.748Z,40.15
2022-08-22T21:22:32.617Z,39.92
2022-08-22T21:25:01.631Z,40.03
2022-08-22T21:27:32.095Z,40.37
2022-08-22T21:30:01.134Z,40.46
2022-08-22T21:32:34.938Z,40.48
2022-08-22T21:35:05.028Z,40.98
2022-08-22T21:37:40.431Z,41.33
2022-08-22T21:40:16.949Z,41.72
2022-08-22T21:42:46.714Z,41.78
2022-08-22T21:45:28.446Z,41.59
2022-08-22T21:47:56.958Z,42.14
2022-08-22T21:50:34.674Z,42.30
2022-08-22T21:53:10.237Z,42.42
2022-08-22T21:55:42.861Z,42.76
2022-08-22T21:58:35.540Z,42.61
2022-08-22T22:01:28.261Z,42.45
2022-08-22T22:03:56.591Z,42.46
2022-08-22T22:06:24.256Z,42.90
2022-08-22T22:08:53.402Z,42.51
2022-08-22T22:11:21.115Z,42.45
2022-08-22T22:13:48.906Z,42.39
2022-08-22T22:16:27.364Z,42.50
2022-08-22T22:18:55.386Z,42.48
2022-08-22T22:21:23.605Z,42.50
2022-08-22T22:23:51.779Z,43.10
2022-08-22T22:26:21.928Z,43.00
2022-08-22T22:28:50.115Z,42.99
2022-08-22T22:31:19.396Z,43.10
2022-08-22T22:33:47.097Z,42.92
2022-08-22T22:36:19.389Z,43.19
2022-08-22T22:38:47.956Z,43.72
2022-08-22T22:41:15.612Z,43.86
2022-08-22T22:43:44.556Z,43.79
2022-08-22T22:46:12.159Z,43.96
2022-08-22T22:48:39.731Z,44.39
2022-08-22T22:51:09.485Z,44.28
2022-08-22T22:53:40.428Z,44.08
2022-08-22T22:56:14.345Z,44.82
2022-08-22T22:58:45.319Z,44.71
2022-08-22T23:01:17.882Z,44.67
2022-08-22T23:03:46.165Z,45.06
2022-08-22T23:06:15.616Z,45.54
2022-08-22T23:08:43.292Z,45.28
2022-08-22T23:11:12.928Z,45.46
2022-08-22T23:13:43.032Z,45.59
2022-08-22T23:16:17.533Z,45.87
2022-08-22T23:18:46.173Z,45.64
2022-08-22T23:21:16.089Z,46.25
2022-08-22T23:23:44.279Z,46.19
2022-08-22T23:26:13.454Z,45.89
2022-08-22T23:28:41.610Z,46.19
2022-08-22T23:31:12.852Z,46.54
2022-08-22T23:33:40.930Z,46.37
2022-08-22T23:36:13.798Z,46.21
2022-08-22T23:38:41.782Z,46.51
2022-08-22T23:41:10.671Z,46.81
2022-08-22T23:43:43.671Z,47.08
2022-08-22T23:46:13.714Z,46.93
2022-08-22T23:48:41.989Z,47.20
2022-08-22T23:51:11.023Z,47.31
2022-08-22T23:53:39.167Z,47.54
2022-08-22T23:56:19.177Z,48.23
2022-08-22T23:58:49.181Z,48.30
